createdAt,value
2023-04-09T00:00:08.736Z,101681.88
2023-04-09T00:02:35.085Z,101686.44
2023-04-09T00:05:02.063Z,101692.19
2023-04-09T00:07:28.364Z,101695.19
2023-04-09T00:09:54.656Z,101693.22
2023-04-09T00:12:20.960Z,101687.84
2023-04-09T00:14:47.272Z,101682.94
2023-04-09T00:17:13.620Z,101686.56
2023-04-09T00:19:39.909Z,101690.56
2023-04-09T00:22:06.245Z,101690.66
2023-04-09T00:24:32.584Z,101680.88
2023-04-09T00:26:58.910Z,101681.31
2023-04-09T00:29:25.209Z,101683.38
2023-04-09T00:31:51.562Z,101686.72
2023-04-09T00:34:17.907Z,101686.13
2023-04-09T00:36:44.203Z,101678.75
2023-04-09T00:39:10.515Z,101670.94
2023-04-09T00:41:36.871Z,101674.69
2023-04-09T00:44:03.159Z,101666.47
2023-04-09T00:46:30.581Z,101663.72
2023-04-09T00:48:56.946Z,101658.78
2023-04-09T00:51:23.391Z,101663.03
2023-04-09T00:53:50.516Z,101667.59
2023-04-09T00:56:18.507Z,101657.78
2023-04-09T00:58:44.836Z,101662.00
2023-04-09T01:01:11.182Z,101664.28
2023-04-09T01:03:37.874Z,101665.50
2023-04-09T01:06:25.612Z,101650.88
2023-04-09T01:09:00.802Z,101660.19
2023-04-09T01:11:51.260Z,101663.34
2023-04-09T01:14:27.061Z,101661.56
2023-04-09T01:17:00.018Z,101660.97
2023-04-09T01:19:54.517Z,101667.97
2023-04-09T01:22:51.615Z,101670.84
2023-04-09T01:25:35.400Z,101669.63
2023-04-09T01:28:18.558Z,101662.63
2023-04-09T01:30:49.231Z,101661.59
2023-04-09T01:33:17.537Z,101668.75
2023-04-09T01:35:46.002Z,101667.91
2023-04-09T01:38:14.696Z,101660.09
2023-04-09T01:40:42.177Z,101665.72
2023-04-09T01:43:08.840Z,101665.44
2023-04-09T01:45:35.145Z,101670.03
2023-04-09T01:48:03.922Z,101665.31
2023-04-09T01:50:30.563Z,101661.00
2023-04-09T01:52:57.010Z,101663.03
2023-04-09T01:55:23.393Z,101664.44
2023-04-09T01:57:49.753Z,101659.72
2023-04-09T02:00:16.308Z,101662.63
2023-04-09T02:02:48.834Z,101661.81
2023-04-09T02:05:19.551Z,101668.59
2023-04-09T02:07:49.364Z,101663.47
2023-04-09T02:10:16.244Z,101656.06
2023-04-09T02:12:48.216Z,101664.72
2023-04-09T02:15:15.180Z,101657.75
2023-04-09T02:17:41.557Z,101660.44
2023-04-09T02:20:08.444Z,101660.22
2023-04-09T02:22:34.766Z,101656.09
2023-04-09T02:25:01.074Z,101662.09
2023-04-09T02:27:27.442Z,101660.63
2023-04-09T02:29:53.729Z,101648.69
2023-04-09T02:32:20.076Z,101652.19
2023-04-09T02:34:46.395Z,101648.28
2023-04-09T02:37:12.704Z,101646.22
2023-04-09T02:39:39.070Z,101642.50
2023-04-09T02:42:05.408Z,101651.59
2023-04-09T02:44:31.706Z,101643.34
2023-04-09T02:46:58.035Z,101645.19
2023-04-09T02:49:24.401Z,101644.75
2023-04-09T02:51:50.744Z,101651.56
2023-04-09T02:54:17.049Z,101640.03
2023-04-09T02:56:43.390Z,101641.06
2023-04-09T02:59:09.690Z,101638.41
2023-04-09T03:01:36.067Z,101636.97
2023-04-09T03:04:02.547Z,101640.88
2023-04-09T03:06:28.974Z,101644.13
2023-04-09T03:08:55.378Z,101643.09
2023-04-09T03:11:21.713Z,101648.22
2023-04-09T03:13:48.101Z,101653.91
2023-04-09T03:16:14.442Z,101644.84
2023-04-09T03:18:40.793Z,101646.69
2023-04-09T03:21:08.321Z,101645.81
2023-04-09T03:23:35.247Z,101645.59
2023-04-09T03:26:05.889Z,101647.28
2023-04-09T03:28:32.444Z,101651.97
2023-04-09T03:30:58.811Z,101643.16
2023-04-09T03:33:25.189Z,101633.16
2023-04-09T03:35:52.091Z,101641.63
2023-04-09T03:38:18.425Z,101635.03
2023-04-09T03:40:44.776Z,101629.47
2023-04-09T03:43:11.084Z,101636.47
2023-04-09T03:45:37.433Z,101629.56
2023-04-09T03:48:03.944Z,101626.88
2023-04-09T03:50:30.362Z,101623.56
2023-04-09T03:52:56.679Z,101623.16
2023-04-09T03:55:23.132Z,101613.22
2023-04-09T03:57:49.422Z,101614.00
2023-04-09T04:00:15.875Z,101619.50
2023-04-09T04:02:42.445Z,101621.16
2023-04-09T04:05:09.034Z,101620.13
2023-04-09T04:07:35.347Z,101613.53
2023-04-09T04:10:04.509Z,101624.59
2023-04-09T04:12:31.747Z,101622.13
2023-04-09T04:14:58.365Z,101622.53
2023-04-09T04:17:24.706Z,101614.63
2023-04-09T04:19:51.061Z,101617.09
2023-04-09T04:22:17.387Z,101621.25
2023-04-09T04:24:43.677Z,101610.88
2023-04-09T04:27:10.009Z,101617.06
2023-04-09T04:29:36.322Z,101620.09
2023-04-09T04:32:02.815Z,101626.03
2023-04-09T04:34:29.212Z,101623.78
2023-04-09T04:36:55.505Z,101627.31
2023-04-09T04:39:21.823Z,101626.28
2023-04-09T04:41:48.121Z,101633.50
2023-04-09T04:44:14.436Z,101629.59
2023-04-09T04:46:40.744Z,101629.78
2023-04-09T04:49:07.033Z,101636.97
2023-04-09T04:51:33.369Z,101638.78
2023-04-09T04:53:59.663Z,101642.03
2023-04-09T04:56:26.081Z,101632.97
2023-04-09T04:58:52.594Z,101636.28
2023-04-09T05:01:19.170Z,101632.88
2023-04-09T05:03:45.608Z,101641.03
2023-04-09T05:06:12.056Z,101646.81
2023-04-09T05:08:38.351Z,101641.00
2023-04-09T05:11:04.719Z,101645.38
2023-04-09T05:13:31.018Z,101644.38
2023-04-09T05:15:57.341Z,101643.41
2023-04-09T05:18:23.651Z,101636.78
2023-04-09T05:20:49.962Z,101639.88
2023-04-09T05:23:16.276Z,101642.06
2023-04-09T05:25:42.637Z,101647.19
2023-04-09T05:28:08.954Z,101648.50
2023-04-09T05:30:35.275Z,101654.72
2023-04-09T05:33:01.637Z,101654.97
2023-04-09T05:35:27.985Z,101648.13
2023-04-09T05:37:54.284Z,101650.31
2023-04-09T05:40:20.663Z,101657.84
2023-04-09T05:42:46.975Z,101653.72
2023-04-09T05:45:13.282Z,101651.56
2023-04-09T05:47:39.640Z,101656.44
2023-04-09T05:50:06.332Z,101648.47
2023-04-09T05:52:32.660Z,101650.88
2023-04-09T05:54:58.945Z,101656.31
2023-04-09T05:57:25.264Z,101647.75
2023-04-09T05:59:51.557Z,101647.47
2023-04-09T06:02:17.927Z,101641.66
2023-04-09T06:04:44.312Z,101644.66
2023-04-09T06:07:10.662Z,101643.75
2023-04-09T06:09:36.972Z,101643.75
2023-04-09T06:12:03.571Z,101650.94
2023-04-09T06:14:30.195Z,101657.56
2023-04-09T06:16:58.923Z,101661.38
2023-04-09T06:19:25.238Z,101654.81
2023-04-09T06:21:51.559Z,101656.66
2023-04-09T06:24:17.862Z,101660.91
2023-04-09T06:26:44.205Z,101651.78
2023-04-09T06:29:10.506Z,101648.66
2023-04-09T06:31:36.908Z,101653.69
2023-04-09T06:34:03.429Z,101658.56
2023-04-09T06:36:29.732Z,101660.84
2023-04-09T06:38:56.239Z,101660.09
2023-04-09T06:41:23.489Z,101660.25
2023-04-09T06:43:49.961Z,101662.13
2023-04-09T06:46:16.477Z,101661.69
2023-04-09T06:48:43.172Z,101665.97
2023-04-09T06:51:09.490Z,101662.50
2023-04-09T06:53:35.826Z,101666.38
2023-04-09T06:56:02.166Z,101665.66
2023-04-09T06:58:28.485Z,101663.75
2023-04-09T07:00:54.938Z,101665.09
2023-04-09T07:03:21.517Z,101662.41
2023-04-09T07:05:47.930Z,101663.22
2023-04-09T07:08:14.994Z,101669.34
2023-04-09T07:10:41.381Z,101669.34
2023-04-09T07:13:07.708Z,101666.19
2023-04-09T07:15:34.121Z,101659.88
2023-04-09T07:18:00.468Z,101658.91
2023-04-09T07:20:26.976Z,101665.00
2023-04-09T07:22:53.309Z,101670.78
2023-04-09T07:25:19.786Z,101664.50
2023-04-09T07:27:46.174Z,101675.56
2023-04-09T07:30:12.698Z,101670.66
2023-04-09T07:32:39.077Z,101666.41
2023-04-09T07:35:08.575Z,101674.09
2023-04-09T07:37:35.639Z,101667.84
2023-04-09T07:40:02.200Z,101678.84
2023-04-09T07:42:28.583Z,101675.53
2023-04-09T07:44:54.941Z,101686.25
2023-04-09T07:47:21.565Z,101676.06
2023-04-09T07:49:47.856Z,101685.59
2023-04-09T07:52:14.191Z,101681.50
2023-04-09T07:54:40.620Z,101689.72
2023-04-09T07:57:07.254Z,101683.28
2023-04-09T07:59:36.649Z,101686.47
2023-04-09T08:02:03.120Z,101686.81
2023-04-09T08:04:29.702Z,101686.59
2023-04-09T08:06:56.091Z,101692.66
2023-04-09T08:09:22.807Z,101689.72
2023-04-09T08:11:49.912Z,101687.72
2023-04-09T08:14:17.747Z,101681.22
2023-04-09T08:16:46.338Z,101685.19
2023-04-09T08:19:13.564Z,101682.53
2023-04-09T08:21:40.909Z,101683.22
2023-04-09T08:24:07.230Z,101684.78
2023-04-09T08:26:33.525Z,101679.72
2023-04-09T08:28:59.842Z,101678.78
2023-04-09T08:31:26.351Z,101680.94
2023-04-09T08:33:52.787Z,101681.75
2023-04-09T08:36:19.986Z,101675.78
2023-04-09T08:38:46.326Z,101680.97
2023-04-09T08:41:26.362Z,101681.84
2023-04-09T08:43:58.324Z,101684.41
2023-04-09T08:46:25.855Z,101675.63
2023-04-09T08:48:52.620Z,101673.81
2023-04-09T08:51:21.438Z,101672.81
2023-04-09T08:54:04.007Z,101672.06
2023-04-09T08:56:31.055Z,101676.25
2023-04-09T08:58:57.383Z,101666.38
2023-04-09T09:01:28.785Z,101667.75
2023-04-09T09:04:00.412Z,101665.72
2023-04-09T09:06:28.754Z,101662.72
2023-04-09T09:09:09.122Z,101660.25
2023-04-09T09:11:46.129Z,101660.47
2023-04-09T09:14:17.090Z,101656.97
2023-04-09T09:17:02.720Z,101660.41
2023-04-09T09:19:31.338Z,101652.19
2023-04-09T09:21:59.036Z,101661.47
2023-04-09T09:24:25.393Z,101646.88
2023-04-09T09:26:52.498Z,101649.63
2023-04-09T09:29:18.841Z,101648.28
2023-04-09T09:31:49.544Z,101641.66
2023-04-09T09:34:17.689Z,101645.44
2023-04-09T09:36:44.849Z,101642.19
2023-04-09T09:39:12.003Z,101639.47
2023-04-09T09:41:43.177Z,101637.56
2023-04-09T09:44:10.814Z,101634.00
2023-04-09T09:46:41.697Z,101632.13
2023-04-09T09:49:09.166Z,101632.41
2023-04-09T09:51:40.141Z,101629.13
2023-04-09T09:54:08.078Z,101620.97
2023-04-09T09:56:39.246Z,101619.59
2023-04-09T09:59:21.869Z,101618.19
2023-04-09T10:01:51.748Z,101622.31
2023-04-09T10:04:19.977Z,101620.72
2023-04-09T10:06:48.076Z,101615.53
2023-04-09T10:09:14.432Z,101608.47
2023-04-09T10:11:41.069Z,101609.84
2023-04-09T10:14:07.488Z,101608.09
2023-04-09T10:16:33.948Z,101606.22
2023-04-09T10:19:01.285Z,101602.34
2023-04-09T10:21:39.531Z,101594.56
2023-04-09T10:24:08.475Z,101589.91
2023-04-09T10:26:36.543Z,101595.94
2023-04-09T10:29:07.894Z,101591.31
2023-04-09T10:32:03.196Z,101594.63
2023-04-09T10:34:29.552Z,101592.56
2023-04-09T10:36:57.887Z,101591.78
2023-04-09T10:39:27.966Z,101585.69
2023-04-09T10:41:55.960Z,101578.94
2023-04-09T10:44:23.429Z,101581.28
2023-04-09T10:46:49.923Z,101578.78
2023-04-09T10:49:19.259Z,101576.41
2023-04-09T10:52:07.921Z,101576.09
2023-04-09T10:54:35.183Z,101576.41
2023-04-09T10:57:07.271Z,101562.94
2023-04-09T10:59:34.553Z,101576.53
2023-04-09T11:02:00.976Z,101563.16
2023-04-09T11:04:39.144Z,101564.56
2023-04-09T11:07:06.609Z,101563.09
2023-04-09T11:09:36.351Z,101560.69
2023-04-09T11:12:02.669Z,101556.31
2023-04-09T11:14:29.436Z,101552.81
2023-04-09T11:16:55.884Z,101554.69
2023-04-09T11:19:23.115Z,101550.38
2023-04-09T11:21:50.110Z,101548.28
2023-04-09T11:24:18.742Z,101541.25
2023-04-09T11:26:45.143Z,101545.81
2023-04-09T11:29:11.477Z,101549.94
2023-04-09T11:31:37.844Z,101544.78
2023-04-09T11:34:04.187Z,101548.84
2023-04-09T11:36:30.575Z,101547.50
2023-04-09T11:38:56.877Z,101545.03
2023-04-09T11:41:52.480Z,101542.34
2023-04-09T11:44:20.320Z,101550.03
2023-04-09T11:46:47.080Z,101554.47
2023-04-09T11:49:13.570Z,101546.28
2023-04-09T11:51:39.996Z,101544.13
2023-04-09T11:54:06.746Z,101540.28
2023-04-09T11:56:34.797Z,101536.16
2023-04-09T11:59:01.839Z,101539.97
2023-04-09T12:01:32.149Z,101544.47
2023-04-09T12:03:59.423Z,101542.44
2023-04-09T12:06:26.630Z,101538.53
2023-04-09T12:08:54.140Z,101537.78
2023-04-09T12:11:20.541Z,101551.09
2023-04-09T12:13:46.875Z,101542.00
2023-04-09T12:16:13.710Z,101547.06
2023-04-09T12:18:40.663Z,101546.44
2023-04-09T12:21:06.992Z,101543.38
2023-04-09T12:23:33.297Z,101546.81
2023-04-09T12:25:59.844Z,101540.72
2023-04-09T12:28:26.734Z,101535.84
2023-04-09T12:30:53.256Z,101541.47
2023-04-09T12:33:19.892Z,101537.47
2023-04-09T12:38:14.332Z,101538.13
2023-04-09T12:40:40.656Z,101537.47
2023-04-09T12:43:06.989Z,101537.25
2023-04-09T12:45:33.427Z,101538.41
2023-04-09T12:47:59.765Z,101533.03
2023-04-09T12:50:26.108Z,101530.00
2023-04-09T12:52:52.443Z,101526.38
2023-04-09T12:55:18.785Z,101527.91
2023-04-09T12:57:45.867Z,101527.38
2023-04-09T13:00:13.035Z,101526.16
2023-04-09T13:02:39.547Z,101518.09
2023-04-09T13:05:06.102Z,101525.84
2023-04-09T13:07:32.446Z,101524.16
2023-04-09T13:09:58.846Z,101521.69
2023-04-09T13:12:25.251Z,101518.34
2023-04-09T13:14:53.804Z,101515.22
2023-04-09T13:17:20.400Z,101514.41
2023-04-09T13:19:46.774Z,101520.03
2023-04-09T13:22:13.170Z,101507.53
2023-04-09T13:24:39.459Z,101506.59
2023-04-09T13:27:06.662Z,101516.63
2023-04-09T13:29:33.022Z,101514.88
2023-04-09T13:31:59.364Z,101510.44
2023-04-09T13:34:25.661Z,101505.81
2023-04-09T13:36:52.036Z,101504.50
2023-04-09T13:39:18.337Z,101502.53
2023-04-09T13:41:44.743Z,101503.53
2023-04-09T13:44:11.082Z,101504.25
2023-04-09T13:46:37.474Z,101507.00
2023-04-09T13:49:03.867Z,101503.34
2023-04-09T13:51:30.245Z,101501.88
2023-04-09T13:53:56.575Z,101502.88
2023-04-09T13:56:23.097Z,101493.50
2023-04-09T13:58:49.432Z,101499.41
2023-04-09T14:01:15.868Z,101497.66
2023-04-09T14:03:42.294Z,101483.84
2023-04-09T14:06:08.722Z,101477.56
2023-04-09T14:08:35.958Z,101486.06
2023-04-09T14:11:03.050Z,101479.75
2023-04-09T14:13:29.667Z,101481.53
2023-04-09T14:15:57.063Z,101485.22
2023-04-09T14:18:24.299Z,101478.72
2023-04-09T14:20:50.665Z,101484.78
2023-04-09T14:23:17.015Z,101479.53
2023-04-09T14:25:44.184Z,101475.72
2023-04-09T14:28:10.563Z,101474.94
2023-04-09T14:30:36.879Z,101473.56
2023-04-09T14:33:03.337Z,101467.44
2023-04-09T14:35:29.750Z,101478.44
2023-04-09T14:37:56.061Z,101468.38
2023-04-09T14:40:22.414Z,101473.31
2023-04-09T14:42:48.711Z,101461.16
2023-04-09T14:45:14.994Z,101463.09
2023-04-09T14:47:41.332Z,101459.97
2023-04-09T14:50:07.933Z,101459.19
2023-04-09T14:52:34.279Z,101459.75
2023-04-09T14:55:00.580Z,101461.16
2023-04-09T14:57:26.870Z,101457.91
2023-04-09T14:59:53.189Z,101461.50
2023-04-09T15:02:19.575Z,101451.47
2023-04-09T15:04:46.147Z,101454.66
2023-04-09T15:07:12.492Z,101446.09
2023-04-09T15:09:38.822Z,101454.34
2023-04-09T15:12:05.155Z,101445.75
2023-04-09T15:14:31.478Z,101443.75
2023-04-09T15:16:57.789Z,101442.94
2023-04-09T15:19:24.096Z,101441.38
2023-04-09T15:21:50.410Z,101440.19
2023-04-09T15:24:16.697Z,101445.50
2023-04-09T15:26:43.016Z,101439.09
2023-04-09T15:29:09.585Z,101441.31
2023-04-09T15:31:35.985Z,101444.09
2023-04-09T15:34:02.331Z,101450.22
2023-04-09T15:36:28.641Z,101436.69
2023-04-09T15:38:55.247Z,101447.53
2023-04-09T15:41:21.745Z,101453.59
2023-04-09T15:43:48.052Z,101448.78
2023-04-09T15:46:14.448Z,101449.09
2023-04-09T15:48:40.823Z,101446.53
2023-04-09T15:51:07.332Z,101443.09
2023-04-09T15:53:33.827Z,101441.50
2023-04-09T15:56:00.169Z,101442.28
2023-04-09T15:58:26.470Z,101440.72
2023-04-09T16:00:52.834Z,101441.94
2023-04-09T16:03:19.352Z,101445.84
2023-04-09T16:05:47.409Z,101442.38
2023-04-09T16:08:13.909Z,101437.06
2023-04-09T16:10:40.210Z,101431.63
2023-04-09T16:13:06.534Z,101432.66
2023-04-09T16:15:32.906Z,101436.63
2023-04-09T16:17:59.263Z,101430.09
2023-04-09T16:20:25.618Z,101427.03
2023-04-09T16:22:51.938Z,101429.41
2023-04-09T16:25:18.245Z,101422.09
2023-04-09T16:27:44.555Z,101424.59
2023-04-09T16:30:11.373Z,101424.75
2023-04-09T16:32:37.748Z,101429.25
2023-04-09T16:35:04.298Z,101435.38
2023-04-09T16:37:30.612Z,101430.19
2023-04-09T16:39:57.146Z,101428.03
2023-04-09T16:42:23.743Z,101434.19
2023-04-09T16:44:50.042Z,101435.78
2023-04-09T16:47:16.362Z,101439.34
2023-04-09T16:49:42.671Z,101435.56
2023-04-09T16:52:08.979Z,101432.19
2023-04-09T16:54:35.293Z,101436.34
2023-04-09T16:57:01.609Z,101431.88
2023-04-09T16:59:27.920Z,101431.91
2023-04-09T17:01:54.327Z,101433.84
2023-04-09T17:04:20.852Z,101423.53
2023-04-09T17:06:47.182Z,101421.63
2023-04-09T17:09:13.517Z,101424.72
2023-04-09T17:11:39.848Z,101433.19
2023-04-09T17:14:06.156Z,101419.09
2023-04-09T17:16:32.506Z,101426.72
2023-04-09T17:18:58.821Z,101423.75
2023-04-09T17:21:25.185Z,101428.41
2023-04-09T17:23:51.502Z,101416.19
2023-04-09T17:26:17.830Z,101420.31
2023-04-09T17:28:44.316Z,101419.78
2023-04-09T17:31:14.869Z,101419.81
2023-04-09T17:33:43.678Z,101418.72
2023-04-09T17:36:09.991Z,101413.28
2023-04-09T17:38:36.330Z,101412.28
2023-04-09T17:41:02.640Z,101416.13
2023-04-09T17:43:28.940Z,101419.69
2023-04-09T17:45:55.292Z,101411.00
2023-04-09T17:48:21.613Z,101403.13
2023-04-09T17:50:47.911Z,101402.63
2023-04-09T17:53:14.199Z,101405.28
2023-04-09T17:55:46.018Z,101402.84
2023-04-09T17:58:12.341Z,101404.19
2023-04-09T18:00:39.731Z,101398.25
2023-04-09T18:03:06.167Z,101401.75
2023-04-09T18:05:34.085Z,101398.50
2023-04-09T18:08:00.508Z,101397.13
2023-04-09T18:10:26.829Z,101402.00
2023-04-09T18:12:53.129Z,101396.00
2023-04-09T18:15:19.580Z,101399.78
2023-04-09T18:17:45.996Z,101394.91
2023-04-09T18:20:12.424Z,101399.75
2023-04-09T18:22:38.759Z,101392.66
2023-04-09T18:25:05.423Z,101403.47
2023-04-09T18:27:31.723Z,101396.94
2023-04-09T18:29:58.066Z,101398.88
2023-04-09T18:32:24.389Z,101396.13
2023-04-09T18:34:51.436Z,101398.25
2023-04-09T18:37:18.573Z,101400.59
2023-04-09T18:39:45.386Z,101405.25
2023-04-09T18:42:11.775Z,101401.16
2023-04-09T18:44:38.347Z,101413.06
2023-04-09T18:47:05.907Z,101420.06
2023-04-09T18:49:33.356Z,101410.19
2023-04-09T18:51:59.679Z,101409.38
2023-04-09T18:54:26.060Z,101416.00
2023-04-09T18:56:52.474Z,101407.38
2023-04-09T18:59:18.777Z,101411.81
2023-04-09T19:01:45.189Z,101409.47
2023-04-09T19:04:11.722Z,101414.28
2023-04-09T19:06:38.090Z,101419.78
2023-04-09T19:09:05.699Z,101422.06
2023-04-09T19:11:32.030Z,101432.69
2023-04-09T19:13:58.343Z,101428.81
2023-04-09T19:16:24.677Z,101431.50
2023-04-09T19:18:51.201Z,101421.69
2023-04-09T19:21:17.791Z,101426.53
2023-04-09T19:23:44.182Z,101435.69
2023-04-09T19:26:10.501Z,101433.53
2023-04-09T19:28:36.795Z,101440.91
2023-04-09T19:31:05.893Z,101434.19
2023-04-09T19:33:32.223Z,101434.88
2023-04-09T19:35:58.551Z,101435.69
2023-04-09T19:38:24.881Z,101443.03
2023-04-09T19:40:51.235Z,101432.59
2023-04-09T19:43:17.562Z,101432.00
2023-04-09T19:45:43.868Z,101445.34
2023-04-09T19:48:10.242Z,101443.25
2023-04-09T19:50:39.680Z,101440.63
2023-04-09T19:53:06.866Z,101445.22
2023-04-09T19:55:33.981Z,101447.34
2023-04-09T19:58:00.797Z,101444.56
2023-04-09T20:00:27.555Z,101441.75
2023-04-09T20:02:54.944Z,101436.53
2023-04-09T20:05:21.375Z,101440.28
2023-04-09T20:07:48.472Z,101436.78
2023-04-09T20:10:15.330Z,101435.78
2023-04-09T20:12:42.064Z,101437.97
2023-04-09T20:15:09.935Z,101436.66
2023-04-09T20:17:36.466Z,101434.38
2023-04-09T20:20:02.971Z,101435.94
2023-04-09T20:22:29.265Z,101441.84
2023-04-09T20:24:55.578Z,101436.41
2023-04-09T20:27:21.960Z,101437.69
2023-04-09T20:29:49.356Z,101437.53
2023-04-09T20:32:15.709Z,101429.84
2023-04-09T20:34:42.116Z,101433.28
2023-04-09T20:37:08.417Z,101436.72
2023-04-09T20:39:34.718Z,101428.88
2023-04-09T20:42:01.011Z,101422.44
2023-04-09T20:44:28.370Z,101415.88
2023-04-09T20:46:55.043Z,101416.75
2023-04-09T20:49:21.337Z,101422.56
2023-04-09T20:51:47.661Z,101419.81
2023-04-09T20:54:14.028Z,101410.25
2023-04-09T20:56:40.349Z,101407.94
2023-04-09T20:59:06.687Z,101414.38
2023-04-09T21:01:33.119Z,101408.53
2023-04-09T21:03:59.652Z,101404.94
2023-04-09T21:06:26.077Z,101405.28
2023-04-09T21:08:52.528Z,101401.53
2023-04-09T21:11:19.245Z,101400.03
2023-04-09T21:16:14.799Z,101401.50
2023-04-09T21:18:41.166Z,101404.91
2023-04-09T21:21:07.504Z,101400.81
2023-04-09T21:23:33.870Z,101405.38
2023-04-09T21:26:00.174Z,101404.81
2023-04-09T21:28:26.481Z,101404.69
2023-04-09T21:30:52.845Z,101411.00
2023-04-09T21:33:19.221Z,101404.47
2023-04-09T21:35:45.519Z,101412.88
2023-04-09T21:38:11.841Z,101401.75
2023-04-09T21:40:38.140Z,101408.31
2023-04-09T21:43:04.472Z,101407.41
2023-04-09T21:45:30.766Z,101400.59
2023-04-09T21:47:57.134Z,101402.63
2023-04-09T21:50:23.512Z,101406.81
2023-04-09T21:52:49.837Z,101404.13
2023-04-09T21:55:16.281Z,101402.16
2023-04-09T21:57:42.589Z,101391.94
2023-04-09T22:00:09.323Z,101390.53
2023-04-09T22:02:35.800Z,101388.09
2023-04-09T22:05:02.312Z,101389.97
2023-04-09T22:07:28.754Z,101385.88
2023-04-09T22:09:57.381Z,101387.16
2023-04-09T22:12:23.816Z,101382.94
2023-04-09T22:14:50.159Z,101377.81
2023-04-09T22:17:16.462Z,101380.16
2023-04-09T22:19:42.770Z,101379.91
2023-04-09T22:22:09.067Z,101379.91
2023-04-09T22:24:35.382Z,101375.25
2023-04-09T22:27:01.696Z,101380.16
2023-04-09T22:29:28.755Z,101375.94
2023-04-09T22:31:55.487Z,101375.94
2023-04-09T22:34:22.282Z,101371.63
2023-04-09T22:36:48.869Z,101372.78
2023-04-09T22:39:15.466Z,101379.69
2023-04-09T22:41:41.772Z,101379.22
2023-04-09T22:44:08.085Z,101376.88
2023-04-09T22:46:34.488Z,101379.09
2023-04-09T22:49:05.014Z,101390.78
2023-04-09T22:51:32.102Z,101391.47
2023-04-09T22:53:58.443Z,101389.34
2023-04-09T22:56:24.743Z,101391.78
2023-04-09T22:58:51.163Z,101390.16
2023-04-09T23:01:17.812Z,101383.03
2023-04-09T23:03:44.237Z,101385.72
2023-04-09T23:06:10.576Z,101384.53
2023-04-09T23:08:38.789Z,101388.97
2023-04-09T23:11:06.537Z,101382.44
2023-04-09T23:13:32.902Z,101384.19
2023-04-09T23:15:59.310Z,101384.19
2023-04-09T23:18:25.656Z,101385.16
2023-04-09T23:20:51.980Z,101380.22
2023-04-09T23:23:18.308Z,101387.13
2023-04-09T23:25:44.622Z,101376.47
2023-04-09T23:28:10.923Z,101377.31
2023-04-09T23:30:37.280Z,101372.06
2023-04-09T23:33:03.721Z,101372.06
2023-04-09T23:35:30.140Z,101373.59
2023-04-09T23:37:56.487Z,101368.00
2023-04-09T23:40:22.801Z,101362.25
2023-04-09T23:42:49.216Z,101367.88
2023-04-09T23:45:15.712Z,101370.56
2023-04-09T23:47:42.064Z,101376.97
2023-04-09T23:50:08.821Z,101371.84
2023-04-09T23:52:37.674Z,101376.41
2023-04-09T23:55:05.343Z,101373.59
2023-04-09T23:57:31.652Z,101371.84
2023-04-09T23:59:57.985Z,101368.88
